Time;durP1;ratioP1;P1;durP2;ratioP2;P2;SDS_P1;SDS_P2;PMS_P1;PMS_P2;Temp;Humidity;BMP_temperature;BMP_pressure;BME280_temperature;BME280_humidity;BME280_pressure;Samples;Min_cycle;Max_cycle;Signal;HPM_P1;HPM_P2
2023/04/23 00:00:47;;;;;;;27.98;17.95;;;11.20;99.90;;;;;;4994819;28;20302;-83
2023/04/23 00:03:16;;;;;;;23.25;18.17;;;11.10;99.90;;;;;;4984189;28;20215;-80
2023/04/23 00:05:44;;;;;;;26.65;15.90;;;11.10;99.90;;;;;;5054731;28;20210;-84
2023/04/23 00:08:12;;;;;;;23.85;17.38;;;11.60;99.90;;;;;;4973732;28;20391;-83
2023/04/23 00:10:42;;;;;;;30.50;17.30;;;11.40;99.90;;;;;;5024450;28;20407;-84
2023/04/23 00:13:09;;;;;;;24.75;17.95;;;11.20;99.90;;;;;;5064966;28;20215;-85
2023/04/23 00:15:37;;;;;;;19.85;15.95;;;11.10;99.90;;;;;;5056731;28;20203;-84
2023/04/23 00:18:06;;;;;;;24.60;17.55;;;10.90;99.90;;;;;;5049132;28;20277;-85
2023/04/23 00:20:36;;;;;;;21.98;15.95;;;10.80;99.90;;;;;;5005023;28;20210;-82
2023/04/23 00:23:03;;;;;;;23.42;17.00;;;10.80;99.90;;;;;;4991066;28;20219;-84
2023/04/23 00:25:32;;;;;;;27.30;16.42;;;10.80;99.90;;;;;;5044523;28;20206;-85
2023/04/23 00:28:01;;;;;;;23.10;17.20;;;10.60;99.90;;;;;;5064395;28;20487;-82
2023/04/23 00:30:27;;;;;;;24.08;17.20;;;10.60;99.90;;;;;;5063739;28;20214;-83
2023/04/23 00:32:55;;;;;;;21.25;17.42;;;10.50;99.90;;;;;;5025168;28;20582;-83
2023/04/23 00:35:22;;;;;;;28.60;19.38;;;10.40;99.90;;;;;;4981381;28;20207;-80
2023/04/23 00:37:50;;;;;;;27.13;18.17;;;10.40;99.90;;;;;;5027631;28;20195;-85
2023/04/23 00:40:17;;;;;;;26.75;17.30;;;10.40;99.90;;;;;;5010542;28;20387;-85
2023/04/23 00:42:44;;;;;;;27.05;18.63;;;10.40;99.90;;;;;;5041819;28;20210;-82
2023/04/23 00:45:11;;;;;;;22.92;18.70;;;10.10;99.90;;;;;;5014351;28;20194;-87
2023/04/23 00:47:42;;;;;;;29.25;18.92;;;10.20;99.90;;;;;;5054582;28;20258;-82
2023/04/23 00:50:10;;;;;;;26.98;19.95;;;10.00;99.90;;;;;;5063913;28;20215;-81
2023/04/23 00:52:39;;;;;;;27.67;19.00;;;10.10;99.90;;;;;;5069164;28;20195;-81
2023/04/23 00:55:07;;;;;;;24.48;18.25;;;10.10;99.90;;;;;;5019521;28;20198;-82
2023/04/23 00:57:36;;;;;;;26.42;18.77;;;10.00;99.90;;;;;;5062132;28;20250;-84
2023/04/23 01:00:08;;;;;;;23.52;17.90;;;10.00;99.90;;;;;;5023926;28;20233;-84
2023/04/23 01:02:37;;;;;;;33.20;19.80;;;10.00;99.90;;;;;;5008248;28;20195;-84
2023/04/23 01:05:06;;;;;;;25.35;20.60;;;9.90;99.90;;;;;;5016567;28;20202;-86
2023/04/23 01:07:34;;;;;;;25.10;19.17;;;9.80;99.90;;;;;;5044354;28;20209;-84
2023/04/23 01:10:02;;;;;;;26.55;17.75;;;9.70;99.90;;;;;;5054230;28;20218;-81
2023/04/23 01:12:35;;;;;;;25.52;18.88;;;9.80;99.90;;;;;;4978511;28;20260;-83
2023/04/23 01:15:03;;;;;;;21.85;18.20;;;9.70;99.90;;;;;;5052104;28;20206;-83
2023/04/23 01:17:31;;;;;;;27.65;19.38;;;9.70;99.90;;;;;;5079841;28;20213;-86
2023/04/23 01:19:58;;;;;;;24.10;18.83;;;9.60;99.90;;;;;;4995259;28;20295;-84
2023/04/23 01:22:25;;;;;;;23.35;17.70;;;9.70;99.90;;;;;;5019440;28;20199;-88
2023/04/23 01:24:56;;;;;;;27.45;18.30;;;9.60;99.90;;;;;;4978614;28;20206;-87
2023/04/23 01:27:27;;;;;;;24.65;18.60;;;9.50;99.90;;;;;;5041669;28;20200;-86
2023/04/23 01:29:55;;;;;;;26.92;20.83;;;9.40;99.90;;;;;;5029973;28;20418;-84
2023/04/23 01:32:24;;;;;;;26.20;17.65;;;9.50;99.90;;;;;;5031115;28;20235;-84
2023/04/23 01:34:52;;;;;;;21.65;16.35;;;9.50;99.90;;;;;;5040585;28;20224;-82
2023/04/23 01:37:23;;;;;;;23.77;18.42;;;9.50;99.90;;;;;;4989114;28;20321;-86
2023/04/23 01:39:50;;;;;;;21.58;16.95;;;9.50;99.90;;;;;;5005272;28;20222;-86
2023/04/23 01:42:19;;;;;;;23.33;18.67;;;9.60;99.90;;;;;;4995016;28;20256;-82
2023/04/23 01:44:46;;;;;;;25.85;18.98;;;9.50;99.90;;;;;;5041811;28;20207;-83
2023/04/23 01:47:15;;;;;;;21.23;17.73;;;9.50;99.90;;;;;;5028518;28;20237;-87
2023/04/23 01:49:43;;;;;;;23.48;17.65;;;9.50;99.90;;;;;;4994268;28;20208;-84
2023/04/23 01:52:11;;;;;;;24.60;18.77;;;9.50;99.90;;;;;;5013985;28;20206;-82
2023/04/23 01:54:38;;;;;;;22.30;17.40;;;9.40;99.90;;;;;;5040753;28;20520;-84
2023/04/23 01:57:05;;;;;;;18.85;15.65;;;9.50;99.90;;;;;;5048829;28;20281;-83
2023/04/23 01:59:36;;;;;;;20.85;15.48;;;9.40;99.90;;;;;;5043411;28;20230;-83
2023/04/23 02:02:03;;;;;;;19.92;15.65;;;9.40;99.90;;;;;;5052235;28;20244;-81
2023/04/23 02:04:32;;;;;;;19.92;15.20;;;9.50;99.90;;;;;;5072372;28;20208;-82
2023/04/23 02:07:01;;;;;;;18.70;15.90;;;9.40;99.90;;;;;;5027417;28;20201;-83
2023/04/23 02:09:28;;;;;;;20.52;16.92;;;9.40;99.90;;;;;;5057684;28;20532;-81
2023/04/23 02:11:56;;;;;;;18.58;15.15;;;9.40;99.90;;;;;;5040718;28;20199;-80
2023/04/23 02:14:24;;;;;;;24.10;16.55;;;9.30;99.90;;;;;;5036799;28;20208;-85
2023/04/23 02:16:52;;;;;;;24.48;15.25;;;9.30;99.90;;;;;;5068095;28;20231;-85
2023/04/23 02:19:19;;;;;;;20.35;18.15;;;9.30;99.90;;;;;;5046529;28;20271;-85
2023/04/23 02:21:46;;;;;;;19.85;16.05;;;9.20;99.90;;;;;;4977937;28;20217;-82
2023/04/23 02:24:13;;;;;;;18.30;15.35;;;9.20;99.90;;;;;;5038345;28;20211;-83
2023/04/23 02:26:40;;;;;;;21.33;15.38;;;9.30;99.90;;;;;;5007480;28;20197;-85
2023/04/23 02:29:09;;;;;;;22.02;17.67;;;9.10;99.90;;;;;;5064838;28;20253;-87
2023/04/23 02:31:36;;;;;;;22.25;16.75;;;9.20;99.90;;;;;;5021213;28;20213;-86
2023/04/23 02:34:03;;;;;;;21.60;16.60;;;9.10;99.90;;;;;;4989650;28;20224;-85
2023/04/23 02:36:31;;;;;;;19.50;15.18;;;9.10;99.90;;;;;;5003454;28;20205;-83
2023/04/23 02:38:58;;;;;;;22.23;16.55;;;9.30;99.90;;;;;;5057878;28;20272;-84
2023/04/23 02:41:25;;;;;;;21.50;15.45;;;9.10;99.90;;;;;;4997251;28;20209;-83
2023/04/23 02:43:52;;;;;;;17.33;13.90;;;9.00;99.90;;;;;;5003092;28;20508;-82
2023/04/23 02:46:19;;;;;;;16.30;14.70;;;9.20;99.90;;;;;;5018348;28;20212;-82
2023/04/23 02:48:47;;;;;;;22.83;16.95;;;9.10;99.90;;;;;;5047528;28;20264;-83
2023/04/23 02:51:14;;;;;;;27.58;16.35;;;9.60;99.90;;;;;;5016807;28;20210;-83
2023/04/23 02:53:41;;;;;;;20.17;14.80;;;9.10;99.90;;;;;;5020098;28;20208;-81
2023/04/23 02:56:09;;;;;;;25.20;15.40;;;9.10;99.90;;;;;;5052711;28;20225;-82
2023/04/23 02:58:35;;;;;;;17.90;14.02;;;9.10;99.90;;;;;;5007114;28;20497;-84
2023/04/23 03:01:05;;;;;;;18.98;14.82;;;9.20;99.90;;;;;;4986406;28;20219;-81
2023/04/23 03:03:33;;;;;;;18.50;15.27;;;9.20;99.90;;;;;;5031706;28;20213;-82
2023/04/23 03:06:01;;;;;;;19.17;15.05;;;9.10;99.90;;;;;;5006780;28;20209;-82
2023/04/23 03:08:28;;;;;;;20.30;14.95;;;9.00;99.90;;;;;;5038409;28;20214;-83
2023/04/23 03:10:55;;;;;;;20.13;15.18;;;8.90;99.90;;;;;;4976372;28;20201;-84
2023/04/23 03:13:22;;;;;;;20.50;15.23;;;8.90;99.90;;;;;;5006091;28;20212;-83
2023/04/23 03:15:52;;;;;;;18.77;15.27;;;8.90;99.90;;;;;;5052249;28;20562;-83
2023/04/23 03:18:19;;;;;;;21.30;15.95;;;8.80;99.90;;;;;;5034331;28;20210;-81
2023/04/23 03:20:46;;;;;;;18.90;15.40;;;8.80;99.90;;;;;;5024202;28;20236;-82
2023/04/23 03:23:13;;;;;;;17.95;14.25;;;9.40;99.90;;;;;;5027406;28;20209;-79
2023/04/23 03:25:40;;;;;;;18.02;13.98;;;8.80;99.90;;;;;;5021362;28;20249;-84
2023/04/23 03:28:07;;;;;;;19.38;14.93;;;8.80;99.90;;;;;;4993873;28;20231;-84
2023/04/23 03:30:34;;;;;;;24.17;16.02;;;8.60;99.90;;;;;;5055288;28;20202;-82
2023/04/23 03:33:01;;;;;;;22.17;16.05;;;8.60;99.90;;;;;;5063585;28;20266;-82
2023/04/23 03:35:28;;;;;;;25.45;16.60;;;8.60;99.90;;;;;;5061302;28;20234;-81
2023/04/23 03:37:55;;;;;;;21.95;16.55;;;8.60;99.90;;;;;;4973862;28;20205;-83
2023/04/23 03:40:22;;;;;;;22.00;16.35;;;8.50;99.90;;;;;;4978133;28;20280;-84
2023/04/23 03:42:49;;;;;;;21.65;16.25;;;8.50;99.90;;;;;;5026061;28;20210;-84
2023/04/23 03:45:16;;;;;;;22.92;16.13;;;8.50;99.90;;;;;;5057297;28;20217;-82
2023/04/23 03:47:43;;;;;;;21.45;16.38;;;8.50;99.90;;;;;;5003813;28;20206;-81
2023/04/23 03:50:13;;;;;;;20.75;15.98;;;8.60;99.90;;;;;;5030136;28;20227;-83
2023/04/23 03:52:40;;;;;;;22.27;16.42;;;8.70;99.90;;;;;;5056645;28;20226;-84
2023/04/23 03:55:08;;;;;;;20.45;16.13;;;8.60;99.90;;;;;;5041194;28;20258;-82
2023/04/23 03:57:35;;;;;;;20.25;16.52;;;8.70;99.90;;;;;;5038949;28;20204;-81
2023/04/23 04:00:15;;;;;;;21.25;15.48;;;8.50;99.90;;;;;;5042418;28;20301;-86
2023/04/23 04:02:42;;;;;;;21.90;15.50;;;8.50;99.90;;;;;;5040201;28;20193;-83
2023/04/23 04:05:11;;;;;;;21.65;16.35;;;8.50;99.90;;;;;;5071796;28;20580;-85
2023/04/23 04:07:40;;;;;;;21.35;16.88;;;8.60;99.90;;;;;;5033891;28;20210;-80
2023/04/23 04:10:07;;;;;;;18.88;15.60;;;8.60;99.90;;;;;;5014720;28;20567;-81
2023/04/23 04:12:33;;;;;;;21.33;14.73;;;8.60;99.90;;;;;;4999546;28;20221;-80
2023/04/23 04:15:02;;;;;;;21.95;15.30;;;8.60;99.90;;;;;;5046672;28;20550;-84
2023/04/23 04:17:29;;;;;;;19.20;13.82;;;8.60;99.90;;;;;;5015321;28;20191;-81
2023/04/23 04:19:56;;;;;;;18.73;16.80;;;8.70;99.90;;;;;;5059165;28;20225;-81
2023/04/23 04:22:23;;;;;;;23.05;15.57;;;8.90;99.90;;;;;;4996168;28;20212;-82
2023/04/23 04:24:51;;;;;;;17.10;14.20;;;8.90;99.90;;;;;;5081440;28;20251;-81
2023/04/23 04:27:18;;;;;;;19.63;14.70;;;9.00;99.90;;;;;;5027301;28;20218;-84
2023/04/23 04:29:45;;;;;;;16.95;14.80;;;9.10;99.90;;;;;;4999378;28;20221;-81
2023/04/23 04:32:12;;;;;;;22.73;14.60;;;9.30;99.90;;;;;;5017417;28;20210;-86
2023/04/23 04:34:39;;;;;;;19.15;12.98;;;9.40;99.90;;;;;;5063662;28;20201;-87
2023/04/23 04:37:06;;;;;;;17.20;12.98;;;9.70;99.90;;;;;;5005084;28;20397;-85
2023/04/23 04:39:34;;;;;;;16.52;12.45;;;9.80;99.90;;;;;;5009471;28;20234;-84
2023/04/23 04:42:01;;;;;;;14.52;11.93;;;10.10;99.90;;;;;;5067032;28;20215;-85
2023/04/23 04:44:29;;;;;;;17.67;12.98;;;10.10;99.90;;;;;;5009631;28;20195;-83
2023/04/23 04:46:56;;;;;;;16.90;13.93;;;10.00;99.90;;;;;;5016219;28;20205;-84
2023/04/23 04:49:23;;;;;;;17.58;12.57;;;9.90;99.90;;;;;;5069042;28;20281;-84
2023/04/23 04:51:50;;;;;;;21.27;14.07;;;10.10;99.90;;;;;;5008619;28;20506;-86
2023/04/23 04:54:17;;;;;;;15.93;12.43;;;10.10;99.90;;;;;;5046784;28;20240;-82
2023/04/23 04:56:44;;;;;;;16.58;13.30;;;10.20;99.90;;;;;;5044334;28;20401;-86
2023/04/23 04:59:11;;;;;;;16.13;13.98;;;10.50;99.90;;;;;;5023941;28;20209;-86
2023/04/23 05:01:38;;;;;;;15.55;11.65;;;10.40;99.90;;;;;;5052315;28;20214;-80
2023/04/23 05:04:05;;;;;;;13.30;11.70;;;10.60;99.90;;;;;;5017231;28;20380;-84
2023/04/23 05:06:32;;;;;;;19.98;12.80;;;10.70;99.90;;;;;;5014831;28;20491;-83
2023/04/23 05:08:59;;;;;;;15.35;11.23;;;11.10;99.90;;;;;;5071003;28;20488;-81
2023/04/23 05:11:26;;;;;;;16.08;11.27;;;11.30;99.90;;;;;;5029162;28;20211;-85
2023/04/23 05:13:53;;;;;;;15.02;10.65;;;11.20;99.90;;;;;;4984624;28;20265;-85
2023/04/23 05:16:20;;;;;;;15.23;11.48;;;11.50;99.90;;;;;;5061716;28;20203;-86
2023/04/23 05:18:48;;;;;;;12.10;10.02;;;11.60;99.90;;;;;;5027206;28;20197;-83
2023/04/23 05:21:15;;;;;;;16.90;12.18;;;11.70;99.90;;;;;;5062085;28;20743;-82
2023/04/23 05:23:42;;;;;;;16.23;11.27;;;11.70;99.90;;;;;;5048824;28;20347;-83
2023/04/23 05:26:10;;;;;;;14.05;10.95;;;11.80;99.90;;;;;;5029225;28;20202;-83
2023/04/23 05:28:37;;;;;;;16.88;11.68;;;11.90;99.90;;;;;;5044888;28;20300;-82
2023/04/23 05:31:04;;;;;;;15.20;11.65;;;12.10;99.90;;;;;;4984980;28;20236;-82
2023/04/23 05:33:31;;;;;;;14.45;11.32;;;12.20;99.90;;;;;;5043069;28;20264;-82
2023/04/23 05:36:08;;;;;;;15.02;10.77;;;12.30;99.90;;;;;;4974452;28;20210;-83
2023/04/23 05:38:35;;;;;;;15.52;11.85;;;12.40;99.90;;;;;;5007048;28;20252;-81
2023/04/23 05:41:02;;;;;;;20.50;13.20;;;13.00;99.90;;;;;;4977619;28;20554;-82
2023/04/23 05:43:30;;;;;;;19.55;13.35;;;12.60;99.90;;;;;;5077028;28;20200;-82
2023/04/23 05:45:57;;;;;;;24.92;16.23;;;13.10;99.90;;;;;;5035617;28;20207;-82
2023/04/23 05:48:29;;;;;;;26.60;14.25;;;13.30;99.90;;;;;;5033930;28;20202;-84
2023/04/23 05:50:58;;;;;;;23.48;13.60;;;13.40;99.90;;;;;;5020322;28;20218;-81
2023/04/23 05:53:25;;;;;;;19.08;13.90;;;13.40;99.90;;;;;;5061195;28;20206;-82
2023/04/23 05:55:52;;;;;;;21.63;12.63;;;13.60;99.90;;;;;;5059052;28;20210;-79
2023/04/23 05:58:19;;;;;;;21.05;12.85;;;13.80;99.90;;;;;;4983490;28;20256;-84
2023/04/23 06:00:46;;;;;;;16.90;13.05;;;14.10;99.90;;;;;;5045017;28;20234;-86
2023/04/23 06:03:15;;;;;;;13.53;10.03;;;14.40;99.90;;;;;;5019617;28;20653;-80
2023/04/23 06:05:45;;;;;;;15.97;11.93;;;14.40;99.90;;;;;;5063077;28;20736;-82
2023/04/23 06:08:12;;;;;;;13.70;11.20;;;14.60;99.90;;;;;;5001722;28;20465;-81
2023/04/23 06:10:39;;;;;;;12.10;10.37;;;15.00;99.90;;;;;;4975994;28;20445;-81
2023/04/23 06:13:06;;;;;;;13.60;10.43;;;15.20;99.90;;;;;;5014178;28;20431;-83
2023/04/23 06:15:33;;;;;;;13.30;9.47;;;15.40;99.90;;;;;;5034038;28;20432;-81
2023/04/23 06:18:00;;;;;;;13.83;9.10;;;15.60;99.90;;;;;;5043164;28;20431;-80
2023/04/23 06:20:26;;;;;;;14.27;10.97;;;15.80;99.90;;;;;;5053324;28;20495;-79
2023/04/23 06:22:54;;;;;;;15.47;11.53;;;15.70;99.90;;;;;;5038380;28;20440;-79
2023/04/23 06:25:21;;;;;;;13.20;10.13;;;16.00;99.90;;;;;;4987748;28;20459;-81
2023/04/23 06:27:48;;;;;;;13.80;9.87;;;16.20;99.90;;;;;;4975868;28;20423;-81
2023/04/23 06:30:17;;;;;;;10.87;9.77;;;16.30;99.90;;;;;;5018584;28;20809;-80
2023/04/23 06:32:44;;;;;;;11.27;10.10;;;16.90;99.90;;;;;;5003370;28;20425;-79
2023/04/23 06:35:12;;;;;;;11.53;9.47;;;17.70;99.90;;;;;;5060067;28;20449;-81
2023/04/23 06:37:39;;;;;;;10.23;8.47;;;18.40;99.90;;;;;;5031465;28;20637;-80
2023/04/23 06:40:06;;;;;;;10.30;8.70;;;18.60;99.90;;;;;;5021951;28;21092;-82
2023/04/23 06:42:33;;;;;;;13.50;9.30;;;19.10;99.90;;;;;;4989317;28;20447;-80
2023/04/23 06:45:03;;;;;;;11.93;9.43;;;19.40;99.90;;;;;;5007119;28;20423;-82
2023/04/23 06:47:32;;;;;;;11.27;9.80;;;19.60;99.90;;;;;;5013733;28;20450;-79
2023/04/23 06:49:59;;;;;;;12.00;9.50;;;19.70;99.90;;;;;;5033911;28;20233;-84
2023/04/23 06:52:26;;;;;;;13.23;10.60;;;20.10;99.90;;;;;;4980271;28;20650;-79
2023/04/23 06:54:53;;;;;;;14.43;12.93;;;20.70;99.90;;;;;;5007587;28;20469;-79
2023/04/23 06:57:20;;;;;;;14.87;12.10;;;20.90;99.90;;;;;;5016197;28;20441;-87
2023/04/23 06:59:47;;;;;;;20.53;10.93;;;21.10;99.90;;;;;;5047386;28;20456;-79
2023/04/23 07:02:14;;;;;;;16.17;12.10;;;21.00;99.90;;;;;;4987665;28;20498;-78
2023/04/23 07:04:41;;;;;;;12.20;10.80;;;21.70;99.90;;;;;;4975340;28;20578;-84
2023/04/23 07:07:11;;;;;;;16.10;11.07;;;22.90;99.90;;;;;;5049963;28;20448;-86
2023/04/23 07:09:38;;;;;;;13.17;10.50;;;24.00;99.90;;;;;;5020225;28;20672;-83
2023/04/23 07:12:05;;;;;;;15.30;12.43;;;25.60;99.90;;;;;;5044638;28;20552;-82
2023/04/23 07:14:32;;;;;;;11.50;9.60;;;26.60;99.90;;;;;;5048050;28;20437;-81
2023/04/23 07:16:59;;;;;;;11.77;9.83;;;27.60;99.10;;;;;;4984964;28;21160;-82
2023/04/23 07:19:26;;;;;;;11.67;9.63;;;26.70;97.20;;;;;;5049230;28;20494;-82
2023/04/23 07:21:53;;;;;;;10.93;9.50;;;27.70;92.70;;;;;;4981480;28;20458;-83
2023/04/23 07:24:20;;;;;;;12.17;8.73;;;28.90;87.50;;;;;;5016239;28;20482;-87
2023/04/23 07:26:48;;;;;;;9.70;8.80;;;29.50;76.40;;;;;;5044369;28;20507;-85
2023/04/23 07:29:16;;;;;;;9.63;8.80;;;29.70;76.30;;;;;;5025700;28;20920;-83
2023/04/23 07:31:43;;;;;;;11.03;10.00;;;29.80;75.00;;;;;;5046449;28;20443;-82
2023/04/23 07:34:10;;;;;;;9.87;8.87;;;30.10;69.90;;;;;;5053944;28;20447;-82
2023/04/23 07:36:37;;;;;;;9.57;8.70;;;29.70;72.70;;;;;;5039666;28;20676;-84
2023/04/23 07:39:05;;;;;;;10.03;9.10;;;30.00;72.30;;;;;;4996950;28;20445;-82
2023/04/23 07:41:32;;;;;;;10.60;9.63;;;29.90;72.30;;;;;;5011002;28;20661;-85
2023/04/23 07:43:59;;;;;;;15.23;10.03;;;30.60;70.90;;;;;;4996491;28;20453;-85
2023/04/23 07:46:26;;;;;;;16.20;9.50;;;29.50;70.80;;;;;;5067078;28;20432;-84
2023/04/23 07:48:54;;;;;;;11.00;9.90;;;29.30;71.50;;;;;;4991105;28;20555;-81
2023/04/23 07:51:25;;;;;;;10.40;9.40;;;29.20;72.80;;;;;;5050302;28;20895;-81
2023/04/23 07:53:53;;;;;;;9.13;6.80;;;31.10;66.60;;;;;;5014837;28;20582;-82
2023/04/23 07:56:21;;;;;;;9.33;7.77;;;31.90;63.90;;;;;;5030757;28;20433;-85
2023/04/23 07:58:52;;;;;;;7.67;6.97;;;31.70;62.60;;;;;;5030644;28;20455;-86
2023/04/23 08:01:20;;;;;;;8.73;7.27;;;31.60;61.90;;;;;;5061522;28;20476;-85
2023/04/23 08:03:47;;;;;;;7.60;6.80;;;30.30;65.20;;;;;;5009917;28;20451;-85
2023/04/23 08:06:15;;;;;;;9.67;7.50;;;30.00;65.50;;;;;;5000573;28;20543;-82
2023/04/23 08:08:42;;;;;;;7.63;6.33;;;29.50;66.50;;;;;;5033110;28;20440;-82
2023/04/23 08:11:11;;;;;;;8.90;6.77;;;28.90;68.60;;;;;;5052373;28;20507;-85
2023/04/23 08:13:38;;;;;;;8.70;7.80;;;29.50;67.60;;;;;;5004280;28;20460;-88
2023/04/23 08:16:05;;;;;;;6.40;5.80;;;29.60;69.00;;;;;;5019293;28;20511;-81
2023/04/23 08:18:34;;;;;;;8.53;7.37;;;30.40;66.00;;;;;;5054655;28;20548;-84
2023/04/23 08:21:03;;;;;;;11.30;7.10;;;31.10;65.40;;;;;;5016140;28;20466;-85
2023/04/23 08:23:30;;;;;;;9.33;5.27;;;31.70;63.70;;;;;;5026752;28;20429;-83
2023/04/23 08:25:57;;;;;;;7.67;5.77;;;32.00;60.20;;;;;;5066049;28;20677;-85
2023/04/23 08:28:26;;;;;;;7.03;5.30;;;30.80;60.50;;;;;;5003331;28;20471;-83
2023/04/23 08:30:53;;;;;;;6.17;5.10;;;30.30;61.50;;;;;;5028952;28;20456;-83
2023/04/23 08:33:20;;;;;;;5.80;5.00;;;30.90;61.30;;;;;;5005716;28;20467;-83
2023/04/23 08:35:47;;;;;;;5.93;5.43;;;31.60;59.70;;;;;;5003990;28;20441;-82
2023/04/23 08:38:14;;;;;;;4.33;3.87;;;31.50;58.30;;;;;;4998452;28;20456;-85
2023/04/23 08:40:42;;;;;;;9.10;4.97;;;30.10;60.30;;;;;;5007286;28;20481;-82
2023/04/23 08:43:15;;;;;;;5.20;4.70;;;29.10;64.00;;;;;;4993187;28;20449;-82
2023/04/23 08:45:46;;;;;;;5.77;4.53;;;28.40;67.50;;;;;;4975727;28;20745;-85
2023/04/23 08:48:14;;;;;;;4.53;4.10;;;27.10;70.30;;;;;;4985466;28;20784;-84
2023/04/23 08:50:42;;;;;;;11.23;5.30;;;26.70;72.40;;;;;;5050097;28;20452;-86
2023/04/23 08:53:09;;;;;;;5.57;5.03;;;27.20;74.30;;;;;;4979786;28;20463;-86
2023/04/23 08:55:36;;;;;;;5.23;4.73;;;27.80;70.60;;;;;;4981277;28;20440;-83
2023/04/23 08:58:05;;;;;;;7.53;4.47;;;28.30;67.00;;;;;;4991978;28;20444;-84
2023/04/23 09:00:33;;;;;;;6.33;5.07;;;28.40;69.20;;;;;;5003017;28;20505;-83
2023/04/23 09:03:00;;;;;;;5.17;4.67;;;28.90;64.10;;;;;;4980309;28;20454;-83
2023/04/23 09:05:30;;;;;;;4.37;4.03;;;28.70;65.30;;;;;;4975251;28;20464;-84
2023/04/23 09:07:58;;;;;;;4.80;4.40;;;29.00;67.80;;;;;;4987901;28;20462;-82
2023/04/23 09:10:27;;;;;;;7.93;4.83;;;29.60;65.00;;;;;;5009695;28;20468;-83
2023/04/23 09:12:54;;;;;;;5.53;4.10;;;29.50;61.70;;;;;;5016905;28;20448;-83
2023/04/23 09:15:21;;;;;;;4.93;4.53;;;28.40;67.70;;;;;;5018974;28;20480;-82
2023/04/23 09:17:48;;;;;;;5.20;4.27;;;27.70;68.70;;;;;;4982990;28;20614;-86
2023/04/23 09:20:16;;;;;;;4.63;4.13;;;27.40;71.60;;;;;;4980257;28;20453;-82
2023/04/23 09:22:51;;;;;;;8.03;5.23;;;27.10;70.90;;;;;;5023937;28;20437;-84
2023/04/23 09:25:19;;;;;;;5.33;4.40;;;26.40;71.60;;;;;;5043988;28;20778;-84
2023/04/23 09:27:50;;;;;;;4.93;4.40;;;25.80;72.40;;;;;;5059021;28;20436;-81
2023/04/23 09:30:26;;;;;;;4.63;4.27;;;25.30;75.60;;;;;;4997223;28;20434;-82
2023/04/23 09:32:57;;;;;;;9.90;4.20;;;24.80;78.30;;;;;;5002649;28;20496;-84
2023/04/23 09:35:27;;;;;;;6.13;3.97;;;24.50;81.20;;;;;;5035734;28;20447;-84
2023/04/23 09:37:55;;;;;;;7.33;6.03;;;24.70;84.10;;;;;;4993956;28;20441;-84
2023/04/23 09:40:30;;;;;;;7.17;4.23;;;25.00;85.00;;;;;;5002925;28;20468;-80
2023/04/23 09:42:57;;;;;;;5.27;4.33;;;25.40;84.30;;;;;;5000913;28;20432;-87
2023/04/23 09:45:24;;;;;;;8.00;4.53;;;25.50;88.50;;;;;;5022847;28;20437;-82
2023/04/23 09:47:55;;;;;;;6.30;4.70;;;25.60;88.20;;;;;;5026586;28;20448;-84
2023/04/23 09:50:37;;;;;;;4.70;4.10;;;25.50;85.20;;;;;;5046337;28;20432;-83
2023/04/23 09:53:05;;;;;;;9.87;4.90;;;25.00;88.10;;;;;;4976387;28;20440;-87
2023/04/23 09:55:37;;;;;;;6.77;5.30;;;25.00;88.00;;;;;;4993212;28;20494;-82
2023/04/23 09:58:06;;;;;;;5.33;4.87;;;24.90;91.30;;;;;;5041662;28;20851;-88
2023/04/23 10:00:42;;;;;;;4.70;4.30;;;24.70;90.80;;;;;;4992174;28;20441;-90
2023/04/23 10:03:09;;;;;;;5.10;4.03;;;24.60;90.40;;;;;;5057017;28;20418;-85
2023/04/23 10:05:41;;;;;;;5.33;4.30;;;24.70;92.50;;;;;;5045011;28;20451;-84
2023/04/23 10:08:27;;;;;;;4.50;4.10;;;24.60;93.10;;;;;;5012021;28;20549;-84
2023/04/23 10:11:01;;;;;;;6.07;4.20;;;24.60;92.70;;;;;;4996233;28;20449;-87
2023/04/23 10:13:46;;;;;;;4.40;4.10;;;24.70;93.50;;;;;;5047244;28;20511;-86
2023/04/23 10:16:16;;;;;;;5.30;4.40;;;25.00;92.80;;;;;;4978203;28;20512;-82
2023/04/23 10:19:00;;;;;;;7.77;4.60;;;25.00;92.50;;;;;;5064290;28;20546;-86
2023/04/23 10:21:30;;;;;;;8.00;6.10;;;25.00;91.90;;;;;;5056571;28;20476;-83
2023/04/23 10:24:13;;;;;;;12.17;5.80;;;24.60;93.00;;;;;;5026253;28;20706;-86
2023/04/23 10:26:43;;;;;;;8.80;4.80;;;25.10;95.70;;;;;;5067457;28;20474;-82
2023/04/23 10:29:17;;;;;;;4.50;4.03;;;25.00;94.20;;;;;;5041016;28;20474;-83
2023/04/23 10:31:45;;;;;;;8.83;4.77;;;25.00;92.40;;;;;;5035071;28;20424;-84
2023/04/23 10:34:17;;;;;;;4.97;4.57;;;25.10;92.70;;;;;;5026613;28;20418;-85
2023/04/23 10:36:45;;;;;;;4.10;3.80;;;25.20;92.20;;;;;;5041253;28;20439;-87
2023/04/23 10:39:13;;;;;;;5.97;5.37;;;25.00;93.10;;;;;;4989967;28;20449;-85
2023/04/23 10:41:54;;;;;;;5.97;5.33;;;25.00;92.90;;;;;;4972818;28;20488;-86
2023/04/23 10:44:21;;;;;;;9.33;4.97;;;25.20;92.10;;;;;;5044878;28;20633;-83
2023/04/23 10:47:18;;;;;;;5.40;4.80;;;25.10;93.30;;;;;;5010607;28;20432;-82
2023/04/23 10:49:48;;;;;;;8.90;6.47;;;25.30;92.50;;;;;;5055959;28;20490;-84
2023/04/23 10:52:17;;;;;;;6.83;4.00;;;25.60;92.30;;;;;;5049444;28;20457;-83
2023/04/23 10:54:58;;;;;;;7.37;4.67;;;25.60;92.50;;;;;;5022577;28;20454;-83
2023/04/23 10:57:27;;;;;;;4.23;3.83;;;25.50;92.40;;;;;;5052869;28;20451;-84
2023/04/23 10:59:57;;;;;;;4.40;3.90;;;25.70;92.10;;;;;;5060152;28;20436;-85
2023/04/23 11:02:25;;;;;;;5.40;4.00;;;26.10;92.20;;;;;;4999554;28;20475;-84
2023/04/23 11:04:57;;;;;;;7.20;4.63;;;26.40;92.70;;;;;;4993001;28;20436;-83
2023/04/23 11:07:29;;;;;;;8.90;7.90;;;26.60;91.50;;;;;;4978829;28;20466;-85
2023/04/23 11:09:59;;;;;;;5.80;5.20;;;26.60;92.10;;;;;;4965261;28;21066;-84
2023/04/23 11:12:38;;;;;;;4.57;3.63;;;26.70;90.70;;;;;;5037983;28;20496;-84
2023/04/23 11:15:17;;;;;;;6.20;5.57;;;27.30;89.50;;;;;;4975499;28;20418;-82
2023/04/23 11:17:46;;;;;;;6.90;4.87;;;27.60;88.30;;;;;;4996851;28;20449;-83
2023/04/23 11:20:21;;;;;;;6.60;5.90;;;27.30;86.60;;;;;;4976598;28;20851;-83
2023/04/23 11:22:49;;;;;;;4.80;4.30;;;27.50;87.20;;;;;;5055936;28;20535;-82
2023/04/23 11:25:25;;;;;;;4.60;4.13;;;28.00;86.00;;;;;;5027367;28;20468;-85
2023/04/23 11:27:54;;;;;;;5.33;4.83;;;27.70;85.50;;;;;;4994803;28;20426;-82
2023/04/23 11:30:33;;;;;;;6.30;4.53;;;27.40;86.50;;;;;;5045292;28;20410;-83
2023/04/23 11:33:01;;;;;;;4.63;4.23;;;27.30;86.70;;;;;;4993727;28;20478;-83
2023/04/23 11:35:30;;;;;;;8.20;3.97;;;27.50;88.40;;;;;;5000970;28;20796;-82
2023/04/23 11:37:57;;;;;;;5.20;3.60;;;27.40;85.40;;;;;;4975980;28;20475;-89
2023/04/23 11:40:24;;;;;;;5.53;3.57;;;27.40;88.90;;;;;;5014643;28;20440;-83
2023/04/23 11:42:53;;;;;;;4.90;3.93;;;27.10;88.70;;;;;;4991882;28;20481;-80
2023/04/23 11:45:28;;;;;;;5.90;3.93;;;26.90;88.80;;;;;;5031925;28;20516;-82
2023/04/23 11:47:57;;;;;;;7.30;3.70;;;27.10;89.60;;;;;;5002036;28;20753;-81
2023/04/23 11:50:31;;;;;;;6.17;3.30;;;27.10;90.40;;;;;;4965855;28;20445;-82
2023/04/23 11:53:10;;;;;;;4.73;3.83;;;26.70;90.50;;;;;;4976551;28;20444;-86
2023/04/23 11:55:37;;;;;;;3.73;2.87;;;26.60;90.90;;;;;;4975991;28;20438;-84
2023/04/23 11:58:04;;;;;;;7.37;3.30;;;26.50;91.00;;;;;;5054875;28;20436;-83
2023/04/23 12:00:34;;;;;;;7.17;3.67;;;26.50;91.00;;;;;;5030244;28;20776;-84
2023/04/23 12:03:04;;;;;;;3.37;3.07;;;26.50;93.00;;;;;;5021886;28;20835;-84
2023/04/23 12:05:39;;;;;;;4.30;3.80;;;26.10;91.90;;;;;;5063244;28;20690;-85
2023/04/23 12:08:10;;;;;;;4.50;3.27;;;26.00;93.00;;;;;;5022041;28;20497;-83
2023/04/23 12:10:50;;;;;;;2.93;2.63;;;25.80;94.70;;;;;;5034434;28;20751;-83
2023/04/23 12:13:29;;;;;;;4.27;2.97;;;25.70;94.60;;;;;;5013109;28;20459;-88
2023/04/23 12:15:58;;;;;;;3.47;3.20;;;25.70;95.30;;;;;;5022118;28;20430;-85
2023/04/23 12:18:37;;;;;;;4.07;3.60;;;25.60;94.10;;;;;;5014256;28;20440;-84
2023/04/23 12:21:09;;;;;;;4.20;3.03;;;25.50;94.70;;;;;;4998578;28;20435;-82
2023/04/23 12:23:40;;;;;;;4.43;4.03;;;25.40;94.40;;;;;;5032580;28;20448;-84
2023/04/23 12:26:12;;;;;;;4.90;4.37;;;25.20;95.20;;;;;;5037210;28;20481;-85
2023/04/23 12:28:56;;;;;;;4.60;4.13;;;25.20;95.60;;;;;;4996342;28;20480;-84
2023/04/23 12:31:28;;;;;;;4.40;3.20;;;25.40;96.40;;;;;;5073457;28;20480;-84
2023/04/23 12:34:03;;;;;;;3.40;3.00;;;25.00;96.30;;;;;;4994137;28;20492;-86
2023/04/23 12:36:31;;;;;;;6.23;4.10;;;24.80;97.10;;;;;;5019215;28;20435;-83
2023/04/23 12:39:30;;;;;;;4.40;4.00;;;25.00;97.20;;;;;;5068308;28;20436;-83
2023/04/23 12:42:06;;;;;;;11.90;5.40;;;25.00;97.40;;;;;;5017906;28;20477;-84
2023/04/23 12:44:35;;;;;;;9.20;4.00;;;25.20;98.00;;;;;;5033343;28;20487;-84
2023/04/23 12:47:06;;;;;;;4.37;3.30;;;25.20;98.10;;;;;;4993104;28;20450;-82